createdAt,value
2018-07-04T00:00:55.997Z,98410.09
2018-07-04T00:03:34.552Z,98404.19
2018-07-04T00:06:13.410Z,98406.91
2018-07-04T00:08:52.048Z,98411.49
2018-07-04T00:11:30.713Z,98411.49
2018-07-04T00:14:09.397Z,98403.88
2018-07-04T00:19:37.926Z,98403.98
2018-07-04T00:25:07.400Z,98401.95
2018-07-04T00:27:46.140Z,98403.67
2018-07-04T00:30:24.929Z,98409.36
2018-07-04T00:33:03.666Z,98406.78
2018-07-04T00:35:42.534Z,98404.84
2018-07-04T00:38:21.314Z,98404.20
2018-07-04T00:41:00.150Z,98404.31
2018-07-04T00:43:40.561Z,98404.84
2018-07-04T00:46:19.227Z,98402.91
2018-07-04T00:48:57.911Z,98409.19
2018-07-04T00:51:36.919Z,98416.44
2018-07-04T00:54:15.431Z,98419.43
2018-07-04T00:56:54.090Z,98412.27
2018-07-04T00:59:32.823Z,98413.73
2018-07-04T01:02:13.118Z,98420.77
2018-07-04T01:04:52.518Z,98414.56
2018-07-04T01:07:31.444Z,98408.00
2018-07-04T01:10:10.102Z,98411.50
2018-07-04T01:12:49.778Z,98404.94
2018-07-04T01:15:28.593Z,98404.83
2018-07-04T01:18:07.137Z,98408.20
2018-07-04T01:20:51.677Z,98407.27
2018-07-04T01:23:30.315Z,98409.69
2018-07-04T01:26:09.080Z,98404.09
2018-07-04T01:28:47.656Z,98412.17
2018-07-04T01:31:26.239Z,98417.06
2018-07-04T01:34:05.866Z,98414.12
2018-07-04T01:36:44.667Z,98413.45
2018-07-04T01:39:23.490Z,98409.78
2018-07-04T01:42:02.760Z,98403.63
2018-07-04T01:44:41.625Z,98396.52
2018-07-04T01:47:20.433Z,98395.61
2018-07-04T01:49:59.095Z,98394.80
2018-07-04T01:52:37.850Z,98394.90
2018-07-04T01:55:16.418Z,98393.90
2018-07-04T01:57:55.883Z,98394.12
2018-07-04T02:00:34.636Z,98392.80
2018-07-04T02:03:13.275Z,98393.25
2018-07-04T02:05:51.857Z,98388.14
2018-07-04T02:08:30.694Z,98390.58
2018-07-04T02:11:10.649Z,98380.13
2018-07-04T02:13:49.577Z,98383.40
2018-07-04T02:16:28.301Z,98380.38
2018-07-04T02:19:07.215Z,98378.16
2018-07-04T02:21:45.872Z,98376.63
2018-07-04T02:24:24.976Z,98371.80
2018-07-04T02:27:03.675Z,98370.47
2018-07-04T02:29:42.394Z,98374.38
2018-07-04T02:32:21.575Z,98373.00
2018-07-04T02:35:00.878Z,98372.13
2018-07-04T02:37:40.987Z,98366.08
2018-07-04T02:40:19.837Z,98374.54
2018-07-04T02:42:59.024Z,98373.43
2018-07-04T02:45:37.822Z,98382.41
2018-07-04T02:48:16.826Z,98384.59
2018-07-04T02:50:55.816Z,98385.87
2018-07-04T02:53:34.379Z,98387.26
2018-07-04T02:56:13.199Z,98381.06
2018-07-04T02:58:57.446Z,98387.11
2018-07-04T03:01:41.961Z,98383.73
2018-07-04T03:04:20.777Z,98381.34
2018-07-04T03:06:59.478Z,98381.67
2018-07-04T03:09:38.280Z,98379.70
2018-07-04T03:12:16.991Z,98377.01
2018-07-04T03:14:55.731Z,98376.67
2018-07-04T03:17:34.686Z,98371.72
2018-07-04T03:20:14.211Z,98379.04
2018-07-04T03:22:53.419Z,98379.64
2018-07-04T03:25:32.372Z,98378.51
2018-07-04T03:28:11.149Z,98381.03
2018-07-04T03:30:49.838Z,98380.03
2018-07-04T03:33:28.706Z,98381.73
2018-07-04T03:36:07.410Z,98383.83
2018-07-04T03:38:46.070Z,98384.03
2018-07-04T03:41:24.770Z,98380.88
2018-07-04T03:44:03.669Z,98377.64
2018-07-04T03:46:42.510Z,98377.73
2018-07-04T03:49:21.228Z,98374.16
2018-07-04T03:51:59.835Z,98376.27
2018-07-04T03:54:38.597Z,98380.17
2018-07-04T03:57:17.447Z,98374.19
2018-07-04T03:59:56.490Z,98377.20
2018-07-04T04:02:35.622Z,98379.38
2018-07-04T04:05:14.527Z,98376.53
2018-07-04T04:07:53.406Z,98376.41
2018-07-04T04:10:36.317Z,98376.58
2018-07-04T04:13:16.764Z,98377.31
2018-07-04T04:15:57.240Z,98373.75
2018-07-04T04:18:37.070Z,98377.27
2018-07-04T04:21:16.629Z,98382.44
2018-07-04T04:23:56.081Z,98380.17
2018-07-04T04:26:37.751Z,98373.36
2018-07-04T04:29:18.713Z,98378.67
2018-07-04T04:31:58.007Z,98373.77
2018-07-04T04:34:37.281Z,98378.44
2018-07-04T04:37:17.141Z,98374.52
2018-07-04T04:39:56.253Z,98374.23
2018-07-04T04:42:35.365Z,98370.72
2018-07-04T04:45:14.921Z,98377.85
2018-07-04T04:47:53.695Z,98389.09
2018-07-04T04:50:32.648Z,98383.27
2018-07-04T04:53:11.908Z,98376.95
2018-07-04T04:58:47.056Z,98372.48
2018-07-04T05:01:25.758Z,98377.72
2018-07-04T05:04:04.683Z,98364.22
2018-07-04T05:06:43.571Z,98367.42
2018-07-04T05:09:22.465Z,98368.13
2018-07-04T05:12:01.431Z,98367.91
2018-07-04T05:14:40.131Z,98364.75
2018-07-04T05:17:18.692Z,98364.75
2018-07-04T05:19:57.507Z,98366.15
2018-07-04T05:22:36.289Z,98364.80
2018-07-04T05:25:15.840Z,98370.14
2018-07-04T05:27:54.778Z,98360.23
2018-07-04T05:30:33.511Z,98367.56
2018-07-04T05:33:12.109Z,98362.66
2018-07-04T05:35:51.053Z,98367.10
2018-07-04T05:38:29.690Z,98374.73
2018-07-04T05:41:09.007Z,98365.13
2018-07-04T05:43:47.997Z,98362.34
2018-07-04T05:46:26.376Z,98366.64
2018-07-04T05:49:07.548Z,98363.51
2018-07-04T05:51:47.124Z,98366.98
2018-07-04T05:54:25.780Z,98368.38
2018-07-04T05:57:04.476Z,98370.48
2018-07-04T05:59:43.135Z,98373.91
2018-07-04T06:02:21.928Z,98375.86
2018-07-04T06:05:00.583Z,98375.74
2018-07-04T06:07:39.351Z,98363.65
2018-07-04T06:10:18.327Z,98371.53
2018-07-04T06:12:57.176Z,98370.06
2018-07-04T06:15:36.096Z,98366.96
2018-07-04T06:18:14.825Z,98365.31
2018-07-04T06:20:53.555Z,98362.23
2018-07-04T06:23:32.301Z,98366.09
2018-07-04T06:26:10.950Z,98374.00
2018-07-04T06:28:49.984Z,98364.08
2018-07-04T06:31:28.785Z,98357.09
2018-07-04T06:34:07.308Z,98357.23
2018-07-04T06:36:46.018Z,98363.87
2018-07-04T06:39:13.223Z,98358.81
2018-07-04T06:41:39.512Z,98365.88
2018-07-04T06:44:05.871Z,98356.79
2018-07-04T06:46:32.194Z,98361.48
2018-07-04T06:48:59.246Z,98361.17
2018-07-04T06:51:25.580Z,98354.89
2018-07-04T06:53:51.928Z,98356.30
2018-07-04T06:56:18.277Z,98357.11
2018-07-04T06:58:44.579Z,98355.63
2018-07-04T07:01:11.541Z,98346.83
2018-07-04T07:03:50.456Z,98349.25
2018-07-04T07:06:29.140Z,98347.17
2018-07-04T07:09:07.976Z,98343.30
2018-07-04T07:11:46.766Z,98339.97
2018-07-04T07:14:25.592Z,98344.27
2018-07-04T07:17:04.344Z,98340.14
2018-07-04T07:19:43.295Z,98335.52
2018-07-04T07:22:21.979Z,98343.71
2018-07-04T07:25:00.772Z,98342.95
2018-07-04T07:27:39.702Z,98337.83
2018-07-04T07:30:18.573Z,98339.56
2018-07-04T07:32:57.339Z,98343.73
2018-07-04T07:35:36.803Z,98335.22
2018-07-04T07:38:16.100Z,98341.12
2018-07-04T07:40:54.912Z,98337.42
2018-07-04T07:43:33.644Z,98334.32
2018-07-04T07:46:12.507Z,98339.16
2018-07-04T07:48:51.211Z,98334.27
2018-07-04T07:51:29.925Z,98328.91
2018-07-04T07:54:08.756Z,98327.78
2018-07-04T07:56:47.484Z,98323.92
2018-07-04T07:59:26.704Z,98318.56
2018-07-04T08:02:05.330Z,98316.80
2018-07-04T08:04:44.088Z,98319.78
2018-07-04T08:07:22.826Z,98318.59
2018-07-04T08:10:01.721Z,98316.94
2018-07-04T08:12:40.375Z,98321.16
2018-07-04T08:15:19.324Z,98314.19
2018-07-04T08:17:58.186Z,98310.44
2018-07-04T08:20:36.980Z,98313.23
2018-07-04T08:23:16.092Z,98311.13
2018-07-04T08:25:55.199Z,98315.41
2018-07-04T08:28:34.639Z,98305.84
2018-07-04T08:31:13.375Z,98304.75
2018-07-04T08:33:52.057Z,98308.47
2018-07-04T08:36:30.647Z,98310.66
2018-07-04T08:39:09.487Z,98304.08
2018-07-04T08:41:48.234Z,98303.45
2018-07-04T08:44:27.859Z,98305.58
2018-07-04T08:47:06.633Z,98304.66
2018-07-04T08:49:45.551Z,98306.66
2018-07-04T08:52:24.435Z,98304.56
2018-07-04T08:55:03.170Z,98303.30
2018-07-04T08:57:41.958Z,98301.71
2018-07-04T09:00:20.734Z,98301.84
2018-07-04T09:02:59.447Z,98300.89
2018-07-04T09:05:38.984Z,98300.28
2018-07-04T09:08:17.845Z,98297.95
2018-07-04T09:10:56.678Z,98302.93
2018-07-04T09:13:35.732Z,98299.28
2018-07-04T09:16:14.537Z,98300.44
2018-07-04T09:18:53.373Z,98292.89
2018-07-04T09:21:32.291Z,98300.59
2018-07-04T09:24:11.135Z,98289.50
2018-07-04T09:26:49.788Z,98288.92
2018-07-04T09:29:28.602Z,98292.95
2018-07-04T09:32:07.567Z,98286.95
2018-07-04T09:34:46.764Z,98284.70
2018-07-04T09:37:25.575Z,98284.18
2018-07-04T09:40:04.299Z,98286.03
2018-07-04T09:42:43.196Z,98282.70
2018-07-04T09:45:21.941Z,98294.43
2018-07-04T09:48:00.624Z,98279.93
2018-07-04T09:50:39.502Z,98280.34
2018-07-04T09:53:18.367Z,98280.30
2018-07-04T09:55:57.059Z,98283.51
2018-07-04T09:58:35.795Z,98273.88
2018-07-04T10:01:20.275Z,98275.00
2018-07-04T10:03:59.366Z,98274.59
2018-07-04T10:06:38.817Z,98284.03
2018-07-04T10:09:17.486Z,98275.12
2018-07-04T10:11:56.068Z,98277.50
2018-07-04T10:14:34.924Z,98271.19
2018-07-04T10:17:13.645Z,98271.41
2018-07-04T10:19:52.576Z,98270.37
2018-07-04T10:22:31.299Z,98270.80
2018-07-04T10:25:10.151Z,98270.05
2018-07-04T10:27:49.013Z,98278.47
2018-07-04T10:30:28.731Z,98269.64
2018-07-04T10:33:07.514Z,98273.91
2018-07-04T10:35:46.158Z,98274.28
2018-07-04T10:38:25.168Z,98279.55
2018-07-04T10:41:04.064Z,98269.50
2018-07-04T10:43:42.660Z,98271.41
2018-07-04T10:46:21.460Z,98270.66
2018-07-04T10:49:00.299Z,98271.83
2018-07-04T10:51:39.272Z,98267.47
2018-07-04T10:54:18.250Z,98268.77
2018-07-04T10:56:56.909Z,98263.58
2018-07-04T10:59:35.684Z,98271.64
2018-07-04T11:02:14.474Z,98265.97
2018-07-04T11:04:55.217Z,98265.39
2018-07-04T11:07:33.873Z,98267.14
2018-07-04T11:10:12.672Z,98264.48
2018-07-04T11:12:51.371Z,98270.09
2018-07-04T11:15:30.193Z,98262.53
2018-07-04T11:18:09.105Z,98260.25
2018-07-04T11:20:47.871Z,98254.67
2018-07-04T11:23:26.663Z,98259.11
2018-07-04T11:26:05.645Z,98256.70
2018-07-04T11:28:44.428Z,98250.08
2018-07-04T11:31:23.221Z,98245.78
2018-07-04T11:34:01.991Z,98245.17
2018-07-04T11:36:40.642Z,98254.58
2018-07-04T11:39:19.410Z,98241.30
2018-07-04T11:41:59.156Z,98240.64
2018-07-04T11:44:38.044Z,98236.22
2018-07-04T11:47:04.551Z,98230.22
2018-07-04T11:49:30.975Z,98227.59
2018-07-04T11:51:57.316Z,98226.18
2018-07-04T11:54:23.680Z,98217.53
2018-07-04T11:56:50.016Z,98219.58
2018-07-04T11:59:16.482Z,98217.11
2018-07-04T12:01:43.338Z,98213.06
2018-07-04T12:04:22.151Z,98208.52
2018-07-04T12:07:01.746Z,98208.59
2018-07-04T12:09:28.299Z,98207.86
2018-07-04T12:11:54.692Z,98211.41
2018-07-04T12:14:21.162Z,98210.17
2018-07-04T12:16:47.510Z,98209.64
2018-07-04T12:19:14.079Z,98211.08
2018-07-04T12:21:40.455Z,98220.06
2018-07-04T12:24:07.005Z,98213.02
2018-07-04T12:26:33.386Z,98209.03
2018-07-04T12:28:59.841Z,98208.06
2018-07-04T12:31:26.199Z,98214.47
2018-07-04T12:33:52.530Z,98217.98
2018-07-04T12:36:18.903Z,98218.84
2018-07-04T12:38:45.232Z,98215.96
2018-07-04T12:41:11.594Z,98213.39
2018-07-04T12:43:38.098Z,98217.14
2018-07-04T12:46:04.593Z,98217.17
2018-07-04T12:48:31.017Z,98215.07
2018-07-04T12:50:57.528Z,98213.59
2018-07-04T12:53:23.925Z,98208.91
2018-07-04T12:56:02.640Z,98209.03
2018-07-04T12:58:41.327Z,98206.52
2018-07-04T13:01:20.400Z,98202.41
2018-07-04T13:03:59.020Z,98202.62
2018-07-04T13:06:37.918Z,98204.30
2018-07-04T13:09:22.174Z,98203.88
2018-07-04T13:12:01.098Z,98198.73
2018-07-04T13:14:39.751Z,98191.28
2018-07-04T13:17:18.424Z,98179.89
2018-07-04T13:19:57.290Z,98163.48
2018-07-04T13:22:36.292Z,98176.60
2018-07-04T13:25:15.636Z,98180.86
2018-07-04T13:27:57.430Z,98166.41
2018-07-04T13:30:36.927Z,98166.30
2018-07-04T13:33:15.925Z,98165.34
2018-07-04T13:38:47.112Z,98168.58
2018-07-04T13:41:29.196Z,98164.84
2018-07-04T13:44:11.111Z,98168.94
2018-07-04T13:46:49.888Z,98161.32
2018-07-04T13:49:28.590Z,98162.30
2018-07-04T13:52:07.342Z,98162.40
2018-07-04T13:54:46.242Z,98161.14
2018-07-04T13:57:25.051Z,98162.05
2018-07-04T14:00:04.343Z,98159.09
2018-07-04T14:02:43.073Z,98159.03
2018-07-04T14:05:21.573Z,98159.34
2018-07-04T14:08:00.429Z,98152.80
2018-07-04T14:10:39.513Z,98160.48
2018-07-04T14:13:19.527Z,98162.41
2018-07-04T14:15:58.202Z,98169.92
2018-07-04T14:18:36.919Z,98170.77
2018-07-04T14:21:15.982Z,98165.92
2018-07-04T14:23:54.878Z,98177.76
2018-07-04T14:26:33.525Z,98179.05
2018-07-04T14:29:12.302Z,98172.20
2018-07-04T14:31:51.006Z,98181.09
2018-07-04T14:34:29.814Z,98186.66
2018-07-04T14:37:08.662Z,98180.37
2018-07-04T14:39:47.397Z,98193.45
2018-07-04T14:42:25.941Z,98186.59
2018-07-04T14:45:04.822Z,98196.09
2018-07-04T14:47:43.683Z,98185.34
2018-07-04T14:50:22.408Z,98188.91
2018-07-04T14:53:01.373Z,98180.83
2018-07-04T14:55:40.079Z,98176.91
2018-07-04T14:58:18.991Z,98174.55
2018-07-04T15:00:57.818Z,98171.15
2018-07-04T15:03:36.647Z,98167.14
2018-07-04T15:06:15.497Z,98161.08
2018-07-04T15:08:54.260Z,98160.89
2018-07-04T15:11:33.274Z,98161.44
2018-07-04T15:14:12.531Z,98162.95
2018-07-04T15:16:51.369Z,98154.50
2018-07-04T15:19:30.126Z,98152.81
2018-07-04T15:22:08.821Z,98156.95
2018-07-04T15:24:47.894Z,98156.80
2018-07-04T15:27:26.882Z,98148.51
2018-07-04T15:30:06.643Z,98149.66
2018-07-04T15:32:45.340Z,98144.45
2018-07-04T15:35:24.185Z,98139.46
2018-07-04T15:38:02.948Z,98144.81
2018-07-04T15:40:42.274Z,98148.02
2018-07-04T15:43:21.131Z,98145.27
2018-07-04T15:46:00.057Z,98147.28
2018-07-04T15:48:38.760Z,98138.84
2018-07-04T15:51:17.657Z,98139.79
2018-07-04T15:53:56.659Z,98147.36
2018-07-04T15:56:35.274Z,98149.70
2018-07-04T15:59:14.090Z,98150.99
2018-07-04T16:01:52.838Z,98135.72
2018-07-04T16:04:32.321Z,98135.81
2018-07-04T16:07:10.997Z,98132.23
2018-07-04T16:09:49.815Z,98130.56
2018-07-04T16:12:28.584Z,98134.45
2018-07-04T16:15:07.390Z,98125.77
2018-07-04T16:17:46.781Z,98126.42
2018-07-04T16:20:25.584Z,98120.77
2018-07-04T16:23:04.490Z,98127.61
2018-07-04T16:25:43.246Z,98123.53
2018-07-04T16:28:22.104Z,98123.28
2018-07-04T16:31:01.307Z,98134.33
2018-07-04T16:33:40.594Z,98134.33
2018-07-04T16:36:19.375Z,98128.05
2018-07-04T16:38:58.320Z,98131.28
2018-07-04T16:41:37.711Z,98131.64
2018-07-04T16:44:16.629Z,98138.27
2018-07-04T16:46:55.487Z,98136.28
2018-07-04T16:49:34.616Z,98141.19
2018-07-04T16:52:14.073Z,98137.45
2018-07-04T16:54:52.794Z,98134.22
2018-07-04T16:57:31.596Z,98138.67
2018-07-04T17:00:10.641Z,98138.34
2018-07-04T17:02:51.636Z,98135.81
2018-07-04T17:05:30.283Z,98136.00
2018-07-04T17:08:09.120Z,98138.02
2018-07-04T17:10:47.842Z,98136.66
2018-07-04T17:13:26.622Z,98130.20
2018-07-04T17:16:05.455Z,98130.55
2018-07-04T17:18:44.166Z,98128.87
2018-07-04T17:21:23.052Z,98123.44
2018-07-04T17:24:01.753Z,98124.47
2018-07-04T17:26:40.573Z,98124.45
2018-07-04T17:29:19.328Z,98119.36
2018-07-04T17:31:58.115Z,98127.34
2018-07-04T17:34:36.757Z,98114.29
2018-07-04T17:37:15.454Z,98116.48
2018-07-04T17:39:54.045Z,98111.58
2018-07-04T17:42:32.898Z,98113.61
2018-07-04T17:45:11.609Z,98111.41
2018-07-04T17:47:50.340Z,98108.88
2018-07-04T17:50:29.218Z,98106.84
2018-07-04T17:53:08.069Z,98106.83
2018-07-04T17:55:46.798Z,98101.42
2018-07-04T17:58:25.470Z,98104.42
2018-07-04T18:01:04.133Z,98098.01
2018-07-04T18:03:42.751Z,98099.70
2018-07-04T18:06:22.170Z,98103.24
2018-07-04T18:09:06.212Z,98100.53
2018-07-04T18:11:54.998Z,98106.75
2018-07-04T18:14:38.730Z,98105.07
2018-07-04T18:17:21.859Z,98107.08
2018-07-04T18:20:03.936Z,98114.45
2018-07-04T18:22:43.434Z,98106.92
2018-07-04T18:25:22.304Z,98105.45
2018-07-04T18:28:01.340Z,98098.57
2018-07-04T18:30:40.736Z,98101.70
2018-07-04T18:33:19.651Z,98106.87
2018-07-04T18:36:05.477Z,98107.39
2018-07-04T18:38:52.369Z,98099.90
2018-07-04T18:41:31.921Z,98101.31
2018-07-04T18:44:10.738Z,98101.34
2018-07-04T18:46:56.625Z,98096.80
2018-07-04T18:49:36.008Z,98094.68
2018-07-04T18:52:14.788Z,98089.22
2018-07-04T18:57:49.810Z,98087.41
2018-07-04T19:00:36.126Z,98086.33
2018-07-04T19:03:25.636Z,98080.41
2018-07-04T19:06:05.472Z,98071.84
2018-07-04T19:08:44.506Z,98066.59
2018-07-04T19:11:24.269Z,98067.50
2018-07-04T19:14:03.926Z,98076.42
2018-07-04T19:16:42.949Z,98072.78
2018-07-04T19:19:29.650Z,98077.47
2018-07-04T19:24:43.640Z,98086.34
2018-07-04T19:27:22.834Z,98090.95
2018-07-04T19:30:02.284Z,98098.41
2018-07-04T19:32:41.276Z,98094.63
2018-07-04T19:35:20.097Z,98098.67
2018-07-04T19:37:59.105Z,98101.47
2018-07-04T19:40:38.234Z,98114.43
2018-07-04T19:43:17.173Z,98106.94
2018-07-04T19:45:55.998Z,98111.42
2018-07-04T19:48:35.797Z,98112.35
2018-07-04T19:51:14.542Z,98114.78
2018-07-04T19:53:54.257Z,98115.25
2018-07-04T19:56:33.952Z,98113.36
2018-07-04T19:59:12.774Z,98115.56
2018-07-04T20:01:52.131Z,98117.30
2018-07-04T20:04:30.781Z,98125.44
2018-07-04T20:07:09.593Z,98121.78
2018-07-04T20:09:48.573Z,98125.33
2018-07-04T20:12:27.300Z,98124.42
2018-07-04T20:15:05.939Z,98123.08
2018-07-04T20:17:44.558Z,98128.33
2018-07-04T20:20:23.457Z,98125.89
2018-07-04T20:23:02.416Z,98124.09
2018-07-04T20:25:41.167Z,98125.78
2018-07-04T20:28:19.771Z,98123.81
2018-07-04T20:30:58.548Z,98123.41
2018-07-04T20:33:37.272Z,98122.45
2018-07-04T20:36:15.994Z,98115.52
2018-07-04T20:38:54.680Z,98119.28
2018-07-04T20:41:33.279Z,98125.94
2018-07-04T20:44:12.070Z,98124.13
2018-07-04T20:46:50.850Z,98123.47
2018-07-04T20:49:29.669Z,98124.54
2018-07-04T20:52:08.436Z,98123.20
2018-07-04T20:54:47.242Z,98124.23
2018-07-04T20:57:25.856Z,98121.13
2018-07-04T21:00:04.768Z,98113.98
2018-07-04T21:02:43.781Z,98112.07
2018-07-04T21:05:22.581Z,98111.44
2018-07-04T21:08:01.078Z,98112.76
2018-07-04T21:10:39.848Z,98107.53
2018-07-04T21:13:18.570Z,98103.13
2018-07-04T21:15:57.399Z,98102.47
2018-07-04T21:18:36.052Z,98101.73
2018-07-04T21:21:17.684Z,98108.55
2018-07-04T21:23:56.238Z,98102.68
2018-07-04T21:26:34.868Z,98112.99
2018-07-04T21:29:13.808Z,98106.06
2018-07-04T21:31:52.338Z,98110.80
2018-07-04T21:34:30.923Z,98108.95
2018-07-04T21:37:10.066Z,98129.42
2018-07-04T21:39:49.759Z,98128.33
2018-07-04T21:42:28.455Z,98128.20
2018-07-04T21:45:07.521Z,98120.80
2018-07-04T21:47:46.157Z,98128.21
2018-07-04T21:50:24.792Z,98118.84
2018-07-04T21:53:03.448Z,98130.59
2018-07-04T21:55:42.256Z,98126.70
2018-07-04T21:58:20.928Z,98119.89
2018-07-04T22:00:59.839Z,98125.36
2018-07-04T22:03:38.628Z,98120.38
2018-07-04T22:06:17.221Z,98119.05
2018-07-04T22:08:55.993Z,98112.11
2018-07-04T22:11:34.557Z,98112.35
2018-07-04T22:14:13.295Z,98110.53
2018-07-04T22:16:52.080Z,98119.80
2018-07-04T22:19:30.819Z,98115.12
2018-07-04T22:22:09.328Z,98113.90
2018-07-04T22:24:48.001Z,98116.17
2018-07-04T22:27:26.488Z,98113.38
2018-07-04T22:30:05.268Z,98111.22
2018-07-04T22:32:43.835Z,98118.36
2018-07-04T22:35:22.554Z,98118.48
2018-07-04T22:38:02.132Z,98121.23
2018-07-04T22:40:40.754Z,98130.06
2018-07-04T22:43:19.450Z,98131.00
2018-07-04T22:45:58.330Z,98124.67
2018-07-04T22:48:36.846Z,98122.77
2018-07-04T22:51:15.563Z,98129.58
2018-07-04T22:53:54.340Z,98117.95
2018-07-04T22:56:33.726Z,98121.84
2018-07-04T22:59:13.050Z,98119.05
2018-07-04T23:01:51.718Z,98120.55
2018-07-04T23:04:30.511Z,98116.33
2018-07-04T23:07:09.263Z,98116.48
2018-07-04T23:09:48.120Z,98111.29
2018-07-04T23:12:26.674Z,98114.48
2018-07-04T23:15:05.444Z,98112.90
2018-07-04T23:17:44.352Z,98114.02
2018-07-04T23:20:23.222Z,98112.20
2018-07-04T23:23:02.265Z,98118.16
2018-07-04T23:25:40.990Z,98113.78
2018-07-04T23:28:19.834Z,98112.32
2018-07-04T23:30:59.883Z,98125.83
2018-07-04T23:33:38.666Z,98129.84
2018-07-04T23:36:18.062Z,98124.24
2018-07-04T23:38:56.670Z,98113.41
2018-07-04T23:41:35.383Z,98111.23
2018-07-04T23:44:14.245Z,98107.19
2018-07-04T23:46:53.678Z,98111.20
2018-07-04T23:49:33.133Z,98114.48
2018-07-04T23:52:11.914Z,98105.94
2018-07-04T23:54:50.712Z,98107.64
2018-07-04T23:57:29.560Z,98109.67
